sensor_id;sensor_type;location;lat;lon;timestamp;P1;durP1;ratioP1;P2;durP2;ratioP2
69185;SDS011;56298;49.246;9.410;2023-07-13T00:01:51;5.47;;;1.77;;
69185;SDS011;56298;49.246;9.410;2023-07-13T00:04:19;5.13;;;1.73;;
69185;SDS011;56298;49.246;9.410;2023-07-13T00:06:45;5.25;;;1.88;;
69185;SDS011;56298;49.246;9.410;2023-07-13T00:09:12;6.15;;;1.70;;
69185;SDS011;56298;49.246;9.410;2023-07-13T00:11:39;6.43;;;1.80;;
69185;SDS011;56298;49.246;9.410;2023-07-13T00:14:05;7.93;;;1.77;;
69185;SDS011;56298;49.246;9.410;2023-07-13T00:16:30;5.70;;;1.87;;
69185;SDS011;56298;49.246;9.410;2023-07-13T00:18:56;5.30;;;1.70;;
69185;SDS011;56298;49.246;9.410;2023-07-13T00:21:21;5.80;;;1.80;;
69185;SDS011;56298;49.246;9.410;2023-07-13T00:23:47;6.03;;;1.67;;
69185;SDS011;56298;49.246;9.410;2023-07-13T00:26:12;6.47;;;2.10;;
69185;SDS011;56298;49.246;9.410;2023-07-13T00:28:38;5.03;;;1.73;;
69185;SDS011;56298;49.246;9.410;2023-07-13T00:31:04;5.68;;;2.00;;
69185;SDS011;56298;49.246;9.410;2023-07-13T00:33:30;6.20;;;1.90;;
69185;SDS011;56298;49.246;9.410;2023-07-13T00:35:56;6.18;;;1.80;;
69185;SDS011;56298;49.246;9.410;2023-07-13T00:38:22;5.55;;;1.70;;
69185;SDS011;56298;49.246;9.410;2023-07-13T00:40:47;6.25;;;1.80;;
69185;SDS011;56298;49.246;9.410;2023-07-13T00:43:15;6.20;;;1.70;;
69185;SDS011;56298;49.246;9.410;2023-07-13T00:48:20;7.67;;;1.80;;
69185;SDS011;56298;49.246;9.410;2023-07-13T00:50:48;8.67;;;2.17;;
69185;SDS011;56298;49.246;9.410;2023-07-13T00:53:16;5.78;;;1.73;;
69185;SDS011;56298;49.246;9.410;2023-07-13T00:55:42;5.85;;;2.10;;
69185;SDS011;56298;49.246;9.410;2023-07-13T00:58:08;7.27;;;2.30;;
69185;SDS011;56298;49.246;9.410;2023-07-13T01:00:35;7.03;;;2.03;;
69185;SDS011;56298;49.246;9.410;2023-07-13T01:03:01;6.07;;;2.20;;
69185;SDS011;56298;49.246;9.410;2023-07-13T01:05:29;5.53;;;2.10;;
69185;SDS011;56298;49.246;9.410;2023-07-13T01:07:57;6.53;;;1.90;;
69185;SDS011;56298;49.246;9.410;2023-07-13T01:10:23;6.00;;;1.98;;
69185;SDS011;56298;49.246;9.410;2023-07-13T01:12:49;5.38;;;1.77;;
69185;SDS011;56298;49.246;9.410;2023-07-13T01:17:58;7.70;;;2.07;;
69185;SDS011;56298;49.246;9.410;2023-07-13T01:20:23;6.35;;;2.15;;
69185;SDS011;56298;49.246;9.410;2023-07-13T01:22:49;5.63;;;2.08;;
69185;SDS011;56298;49.246;9.410;2023-07-13T01:25:15;5.60;;;1.77;;
69185;SDS011;56298;49.246;9.410;2023-07-13T01:27:41;6.10;;;2.00;;
69185;SDS011;56298;49.246;9.410;2023-07-13T01:30:06;4.87;;;2.07;;
69185;SDS011;56298;49.246;9.410;2023-07-13T01:32:32;5.40;;;1.93;;
69185;SDS011;56298;49.246;9.410;2023-07-13T01:34:59;5.88;;;2.15;;
69185;SDS011;56298;49.246;9.410;2023-07-13T01:37:24;5.30;;;2.10;;
69185;SDS011;56298;49.246;9.410;2023-07-13T01:39:50;5.40;;;2.40;;
69185;SDS011;56298;49.246;9.410;2023-07-13T01:42:16;6.30;;;2.13;;
69185;SDS011;56298;49.246;9.410;2023-07-13T01:44:41;5.17;;;2.03;;
69185;SDS011;56298;49.246;9.410;2023-07-13T01:47:07;6.03;;;1.90;;
69185;SDS011;56298;49.246;9.410;2023-07-13T01:49:32;5.10;;;2.00;;
69185;SDS011;56298;49.246;9.410;2023-07-13T01:51:57;6.80;;;2.23;;
69185;SDS011;56298;49.246;9.410;2023-07-13T01:54:22;8.07;;;2.13;;
69185;SDS011;56298;49.246;9.410;2023-07-13T01:56:48;4.87;;;2.10;;
69185;SDS011;56298;49.246;9.410;2023-07-13T01:59:13;6.57;;;2.40;;
69185;SDS011;56298;49.246;9.410;2023-07-13T02:01:38;6.00;;;2.30;;
69185;SDS011;56298;49.246;9.410;2023-07-13T02:04:04;5.30;;;2.20;;
69185;SDS011;56298;49.246;9.410;2023-07-13T02:06:29;5.20;;;2.20;;
69185;SDS011;56298;49.246;9.410;2023-07-13T02:08:55;4.83;;;2.10;;
69185;SDS011;56298;49.246;9.410;2023-07-13T02:11:20;6.40;;;2.20;;
69185;SDS011;56298;49.246;9.410;2023-07-13T02:13:45;6.50;;;2.00;;
69185;SDS011;56298;49.246;9.410;2023-07-13T02:16:11;6.50;;;2.13;;
69185;SDS011;56298;49.246;9.410;2023-07-13T02:18:36;6.07;;;2.30;;
69185;SDS011;56298;49.246;9.410;2023-07-13T02:21:02;6.80;;;2.17;;
69185;SDS011;56298;49.246;9.410;2023-07-13T02:23:27;5.63;;;2.10;;
69185;SDS011;56298;49.246;9.410;2023-07-13T02:25:56;6.47;;;2.47;;
69185;SDS011;56298;49.246;9.410;2023-07-13T02:28:23;5.22;;;2.00;;
69185;SDS011;56298;49.246;9.410;2023-07-13T02:30:48;6.93;;;2.30;;
69185;SDS011;56298;49.246;9.410;2023-07-13T02:33:13;5.77;;;2.33;;
69185;SDS011;56298;49.246;9.410;2023-07-13T02:35:39;5.67;;;2.30;;
69185;SDS011;56298;49.246;9.410;2023-07-13T02:38:04;6.57;;;2.27;;
69185;SDS011;56298;49.246;9.410;2023-07-13T02:40:29;5.50;;;2.33;;
69185;SDS011;56298;49.246;9.410;2023-07-13T02:42:58;7.97;;;2.50;;
69185;SDS011;56298;49.246;9.410;2023-07-13T02:45:23;7.67;;;2.50;;
69185;SDS011;56298;49.246;9.410;2023-07-13T02:47:48;6.43;;;2.60;;
69185;SDS011;56298;49.246;9.410;2023-07-13T02:50:13;9.00;;;2.90;;
69185;SDS011;56298;49.246;9.410;2023-07-13T02:52:38;5.33;;;2.37;;
69185;SDS011;56298;49.246;9.410;2023-07-13T02:55:04;8.70;;;2.50;;
69185;SDS011;56298;49.246;9.410;2023-07-13T02:57:29;6.43;;;2.60;;
69185;SDS011;56298;49.246;9.410;2023-07-13T02:59:55;5.07;;;2.38;;
69185;SDS011;56298;49.246;9.410;2023-07-13T03:02:20;8.37;;;2.40;;
69185;SDS011;56298;49.246;9.410;2023-07-13T03:04:45;6.37;;;2.60;;
69185;SDS011;56298;49.246;9.410;2023-07-13T03:07:11;7.40;;;2.60;;
69185;SDS011;56298;49.246;9.410;2023-07-13T03:09:36;6.97;;;2.50;;
69185;SDS011;56298;49.246;9.410;2023-07-13T03:12:01;6.37;;;2.60;;
69185;SDS011;56298;49.246;9.410;2023-07-13T03:14:27;7.45;;;2.60;;
69185;SDS011;56298;49.246;9.410;2023-07-13T03:16:53;5.63;;;2.53;;
69185;SDS011;56298;49.246;9.410;2023-07-13T03:19:18;6.17;;;2.60;;
69185;SDS011;56298;49.246;9.410;2023-07-13T03:21:44;6.78;;;2.30;;
69185;SDS011;56298;49.246;9.410;2023-07-13T03:24:09;8.00;;;2.30;;
69185;SDS011;56298;49.246;9.410;2023-07-13T03:26:34;6.23;;;2.30;;
69185;SDS011;56298;49.246;9.410;2023-07-13T03:29:00;7.10;;;2.43;;
69185;SDS011;56298;49.246;9.410;2023-07-13T03:31:27;6.03;;;2.40;;
69185;SDS011;56298;49.246;9.410;2023-07-13T03:33:54;6.40;;;2.42;;
69185;SDS011;56298;49.246;9.410;2023-07-13T03:36:21;5.97;;;2.90;;
69185;SDS011;56298;49.246;9.410;2023-07-13T03:38:52;7.68;;;2.80;;
69185;SDS011;56298;49.246;9.410;2023-07-13T03:41:20;7.72;;;3.00;;
69185;SDS011;56298;49.246;9.410;2023-07-13T03:43:46;6.97;;;3.00;;
69185;SDS011;56298;49.246;9.410;2023-07-13T03:46:13;7.07;;;3.10;;
69185;SDS011;56298;49.246;9.410;2023-07-13T03:48:39;6.90;;;2.88;;
69185;SDS011;56298;49.246;9.410;2023-07-13T03:51:07;8.55;;;3.10;;
69185;SDS011;56298;49.246;9.410;2023-07-13T03:53:33;9.13;;;2.67;;
69185;SDS011;56298;49.246;9.410;2023-07-13T03:56:00;7.35;;;2.80;;
69185;SDS011;56298;49.246;9.410;2023-07-13T03:58:32;6.43;;;2.70;;
69185;SDS011;56298;49.246;9.410;2023-07-13T04:00:59;7.43;;;2.85;;
69185;SDS011;56298;49.246;9.410;2023-07-13T04:03:25;8.35;;;2.40;;
69185;SDS011;56298;49.246;9.410;2023-07-13T04:05:52;6.15;;;2.50;;
69185;SDS011;56298;49.246;9.410;2023-07-13T04:08:18;8.00;;;2.53;;
69185;SDS011;56298;49.246;9.410;2023-07-13T04:10:44;6.07;;;2.70;;
69185;SDS011;56298;49.246;9.410;2023-07-13T04:13:09;5.53;;;2.60;;
69185;SDS011;56298;49.246;9.410;2023-07-13T04:15:34;6.70;;;2.42;;
69185;SDS011;56298;49.246;9.410;2023-07-13T04:18:00;8.10;;;2.57;;
69185;SDS011;56298;49.246;9.410;2023-07-13T04:20:25;6.87;;;2.43;;
69185;SDS011;56298;49.246;9.410;2023-07-13T04:22:51;7.72;;;2.60;;
69185;SDS011;56298;49.246;9.410;2023-07-13T04:25:18;5.85;;;2.22;;
69185;SDS011;56298;49.246;9.410;2023-07-13T04:27:43;7.55;;;2.63;;
69185;SDS011;56298;49.246;9.410;2023-07-13T04:30:09;6.73;;;2.47;;
69185;SDS011;56298;49.246;9.410;2023-07-13T04:32:34;5.70;;;2.33;;
69185;SDS011;56298;49.246;9.410;2023-07-13T04:34:59;6.40;;;2.57;;
69185;SDS011;56298;49.246;9.410;2023-07-13T04:37:25;6.17;;;2.30;;
69185;SDS011;56298;49.246;9.410;2023-07-13T04:39:51;7.45;;;2.53;;
69185;SDS011;56298;49.246;9.410;2023-07-13T04:42:17;6.82;;;2.47;;
69185;SDS011;56298;49.246;9.410;2023-07-13T04:44:47;8.20;;;2.50;;
69185;SDS011;56298;49.246;9.410;2023-07-13T04:47:13;6.38;;;2.38;;
69185;SDS011;56298;49.246;9.410;2023-07-13T04:49:39;6.50;;;2.40;;
69185;SDS011;56298;49.246;9.410;2023-07-13T04:52:04;8.30;;;2.50;;
69185;SDS011;56298;49.246;9.410;2023-07-13T04:54:32;8.75;;;2.50;;
69185;SDS011;56298;49.246;9.410;2023-07-13T04:56:58;6.80;;;2.30;;
69185;SDS011;56298;49.246;9.410;2023-07-13T04:59:23;6.07;;;2.30;;
69185;SDS011;56298;49.246;9.410;2023-07-13T05:01:48;6.20;;;2.50;;
69185;SDS011;56298;49.246;9.410;2023-07-13T05:04:13;8.20;;;2.43;;
69185;SDS011;56298;49.246;9.410;2023-07-13T05:06:39;6.07;;;2.50;;
69185;SDS011;56298;49.246;9.410;2023-07-13T05:09:05;8.50;;;2.20;;
69185;SDS011;56298;49.246;9.410;2023-07-13T05:11:30;5.77;;;2.30;;
69185;SDS011;56298;49.246;9.410;2023-07-13T05:13:56;7.70;;;2.40;;
69185;SDS011;56298;49.246;9.410;2023-07-13T05:16:21;7.90;;;2.47;;
69185;SDS011;56298;49.246;9.410;2023-07-13T05:18:46;6.87;;;2.30;;
69185;SDS011;56298;49.246;9.410;2023-07-13T05:21:12;8.73;;;2.40;;
69185;SDS011;56298;49.246;9.410;2023-07-13T05:23:37;9.13;;;2.60;;
69185;SDS011;56298;49.246;9.410;2023-07-13T05:26:03;6.68;;;2.60;;
69185;SDS011;56298;49.246;9.410;2023-07-13T05:28:29;9.48;;;2.10;;
69185;SDS011;56298;49.246;9.410;2023-07-13T05:30:55;7.05;;;2.30;;
69185;SDS011;56298;49.246;9.410;2023-07-13T05:33:21;7.87;;;2.50;;
69185;SDS011;56298;49.246;9.410;2023-07-13T05:35:46;9.30;;;2.30;;
69185;SDS011;56298;49.246;9.410;2023-07-13T05:38:12;7.13;;;2.40;;
69185;SDS011;56298;49.246;9.410;2023-07-13T05:40:37;8.53;;;2.30;;
69185;SDS011;56298;49.246;9.410;2023-07-13T05:43:03;8.07;;;2.43;;
69185;SDS011;56298;49.246;9.410;2023-07-13T05:45:28;8.77;;;2.40;;
69185;SDS011;56298;49.246;9.410;2023-07-13T05:47:53;7.27;;;2.43;;
69185;SDS011;56298;49.246;9.410;2023-07-13T05:50:19;7.57;;;2.47;;
69185;SDS011;56298;49.246;9.410;2023-07-13T05:52:44;8.35;;;2.35;;
69185;SDS011;56298;49.246;9.410;2023-07-13T05:55:09;7.00;;;2.60;;
69185;SDS011;56298;49.246;9.410;2023-07-13T05:57:34;8.37;;;2.30;;
69185;SDS011;56298;49.246;9.410;2023-07-13T06:00:00;7.97;;;2.20;;
69185;SDS011;56298;49.246;9.410;2023-07-13T06:02:25;7.37;;;2.20;;
69185;SDS011;56298;49.246;9.410;2023-07-13T06:04:51;8.05;;;2.17;;
69185;SDS011;56298;49.246;9.410;2023-07-13T06:07:16;7.20;;;2.03;;
69185;SDS011;56298;49.246;9.410;2023-07-13T06:09:42;7.40;;;2.10;;
69185;SDS011;56298;49.246;9.410;2023-07-13T06:12:07;8.23;;;2.40;;
69185;SDS011;56298;49.246;9.410;2023-07-13T06:14:32;7.45;;;2.25;;
69185;SDS011;56298;49.246;9.410;2023-07-13T06:16:58;6.57;;;1.70;;
69185;SDS011;56298;49.246;9.410;2023-07-13T06:19:23;7.73;;;1.90;;
69185;SDS011;56298;49.246;9.410;2023-07-13T06:21:48;8.38;;;2.00;;
69185;SDS011;56298;49.246;9.410;2023-07-13T06:24:13;7.18;;;2.22;;
69185;SDS011;56298;49.246;9.410;2023-07-13T06:26:39;7.17;;;2.10;;
69185;SDS011;56298;49.246;9.410;2023-07-13T06:29:04;6.37;;;1.80;;
69185;SDS011;56298;49.246;9.410;2023-07-13T06:31:30;8.32;;;2.30;;
69185;SDS011;56298;49.246;9.410;2023-07-13T06:33:55;5.90;;;2.00;;
69185;SDS011;56298;49.246;9.410;2023-07-13T06:36:21;7.00;;;2.10;;
69185;SDS011;56298;49.246;9.410;2023-07-13T06:38:46;6.80;;;1.90;;
69185;SDS011;56298;49.246;9.410;2023-07-13T06:41:11;6.13;;;2.10;;
69185;SDS011;56298;49.246;9.410;2023-07-13T06:43:36;6.60;;;1.90;;
69185;SDS011;56298;49.246;9.410;2023-07-13T06:46:02;6.75;;;2.10;;
69185;SDS011;56298;49.246;9.410;2023-07-13T06:48:27;8.23;;;2.40;;
69185;SDS011;56298;49.246;9.410;2023-07-13T06:50:53;6.07;;;1.83;;
69185;SDS011;56298;49.246;9.410;2023-07-13T06:53:19;6.83;;;2.13;;
69185;SDS011;56298;49.246;9.410;2023-07-13T06:55:45;6.47;;;1.90;;
69185;SDS011;56298;49.246;9.410;2023-07-13T06:58:10;6.65;;;2.13;;
69185;SDS011;56298;49.246;9.410;2023-07-13T07:00:36;7.60;;;2.20;;
69185;SDS011;56298;49.246;9.410;2023-07-13T07:03:01;7.13;;;2.00;;
69185;SDS011;56298;49.246;9.410;2023-07-13T07:05:26;7.43;;;2.00;;
69185;SDS011;56298;49.246;9.410;2023-07-13T07:07:53;5.50;;;2.23;;
69185;SDS011;56298;49.246;9.410;2023-07-13T07:10:19;6.82;;;2.10;;
69185;SDS011;56298;49.246;9.410;2023-07-13T07:12:45;7.90;;;2.35;;
69185;SDS011;56298;49.246;9.410;2023-07-13T07:15:11;7.60;;;2.60;;
69185;SDS011;56298;49.246;9.410;2023-07-13T07:17:36;6.37;;;2.47;;
69185;SDS011;56298;49.246;9.410;2023-07-13T07:20:02;7.70;;;2.63;;
69185;SDS011;56298;49.246;9.410;2023-07-13T07:22:28;8.05;;;2.80;;
69185;SDS011;56298;49.246;9.410;2023-07-13T07:24:55;6.63;;;2.63;;
69185;SDS011;56298;49.246;9.410;2023-07-13T07:27:20;6.37;;;2.80;;
69185;SDS011;56298;49.246;9.410;2023-07-13T07:29:45;7.90;;;2.77;;
69185;SDS011;56298;49.246;9.410;2023-07-13T07:32:10;8.97;;;2.80;;
69185;SDS011;56298;49.246;9.410;2023-07-13T07:34:36;8.40;;;2.58;;
69185;SDS011;56298;49.246;9.410;2023-07-13T07:37:01;8.53;;;2.57;;
69185;SDS011;56298;49.246;9.410;2023-07-13T07:39:27;7.32;;;2.75;;
69185;SDS011;56298;49.246;9.410;2023-07-13T07:41:53;6.93;;;2.60;;
69185;SDS011;56298;49.246;9.410;2023-07-13T07:44:18;7.00;;;2.60;;
69185;SDS011;56298;49.246;9.410;2023-07-13T07:46:43;6.17;;;2.40;;
69185;SDS011;56298;49.246;9.410;2023-07-13T07:49:09;8.03;;;2.40;;
69185;SDS011;56298;49.246;9.410;2023-07-13T07:51:34;6.40;;;2.30;;
69185;SDS011;56298;49.246;9.410;2023-07-13T07:53:59;5.43;;;2.05;;
69185;SDS011;56298;49.246;9.410;2023-07-13T07:56:25;5.53;;;2.00;;
69185;SDS011;56298;49.246;9.410;2023-07-13T07:58:50;6.77;;;2.10;;
69185;SDS011;56298;49.246;9.410;2023-07-13T08:01:15;7.43;;;2.10;;
69185;SDS011;56298;49.246;9.410;2023-07-13T08:03:41;7.07;;;2.00;;
69185;SDS011;56298;49.246;9.410;2023-07-13T08:06:06;5.72;;;1.95;;
69185;SDS011;56298;49.246;9.410;2023-07-13T08:08:31;8.37;;;2.03;;
69185;SDS011;56298;49.246;9.410;2023-07-13T08:10:57;5.80;;;2.13;;
69185;SDS011;56298;49.246;9.410;2023-07-13T08:13:22;6.60;;;2.00;;
69185;SDS011;56298;49.246;9.410;2023-07-13T08:15:47;8.77;;;2.10;;
69185;SDS011;56298;49.246;9.410;2023-07-13T08:18:14;7.25;;;2.10;;
69185;SDS011;56298;49.246;9.410;2023-07-13T08:20:40;8.23;;;1.93;;
69185;SDS011;56298;49.246;9.410;2023-07-13T08:23:06;6.35;;;1.80;;
69185;SDS011;56298;49.246;9.410;2023-07-13T08:25:33;7.63;;;1.90;;
69185;SDS011;56298;49.246;9.410;2023-07-13T08:27:58;6.10;;;1.80;;
69185;SDS011;56298;49.246;9.410;2023-07-13T08:30:23;6.00;;;2.00;;
69185;SDS011;56298;49.246;9.410;2023-07-13T08:32:49;7.30;;;1.90;;
69185;SDS011;56298;49.246;9.410;2023-07-13T08:35:14;7.30;;;1.70;;
69185;SDS011;56298;49.246;9.410;2023-07-13T08:37:40;6.32;;;1.85;;
69185;SDS011;56298;49.246;9.410;2023-07-13T08:40:07;6.67;;;1.83;;
69185;SDS011;56298;49.246;9.410;2023-07-13T08:47:54;6.88;;;1.67;;
69185;SDS011;56298;49.246;9.410;2023-07-13T08:50:27;6.43;;;1.70;;
69185;SDS011;56298;49.246;9.410;2023-07-13T08:52:58;5.82;;;1.80;;
69185;SDS011;56298;49.246;9.410;2023-07-13T08:55:29;5.57;;;1.63;;
69185;SDS011;56298;49.246;9.410;2023-07-13T08:58:12;5.88;;;1.75;;
69185;SDS011;56298;49.246;9.410;2023-07-13T09:00:44;5.72;;;1.70;;
69185;SDS011;56298;49.246;9.410;2023-07-13T09:03:21;6.97;;;1.77;;
69185;SDS011;56298;49.246;9.410;2023-07-13T09:05:55;7.18;;;1.63;;
69185;SDS011;56298;49.246;9.410;2023-07-13T09:11:46;4.72;;;1.70;;
69185;SDS011;56298;49.246;9.410;2023-07-13T09:14:26;8.70;;;1.92;;
69185;SDS011;56298;49.246;9.410;2023-07-13T09:17:03;6.32;;;1.98;;
69185;SDS011;56298;49.246;9.410;2023-07-13T09:19:31;5.68;;;1.77;;
69185;SDS011;56298;49.246;9.410;2023-07-13T09:21:58;5.43;;;1.83;;
69185;SDS011;56298;49.246;9.410;2023-07-13T09:24:33;6.07;;;1.63;;
69185;SDS011;56298;49.246;9.410;2023-07-13T09:27:19;5.53;;;1.80;;
69185;SDS011;56298;49.246;9.410;2023-07-13T09:29:48;8.45;;;1.85;;
69185;SDS011;56298;49.246;9.410;2023-07-13T09:32:33;5.70;;;1.52;;
69185;SDS011;56298;49.246;9.410;2023-07-13T09:34:58;6.60;;;1.70;;
69185;SDS011;56298;49.246;9.410;2023-07-13T09:37:28;5.70;;;1.60;;
69185;SDS011;56298;49.246;9.410;2023-07-13T09:39:55;6.10;;;1.87;;
69185;SDS011;56298;49.246;9.410;2023-07-13T09:42:22;4.93;;;1.58;;
69185;SDS011;56298;49.246;9.410;2023-07-13T09:44:58;5.37;;;1.53;;
69185;SDS011;56298;49.246;9.410;2023-07-13T09:47:31;5.20;;;1.55;;
69185;SDS011;56298;49.246;9.410;2023-07-13T09:50:03;5.20;;;1.70;;
69185;SDS011;56298;49.246;9.410;2023-07-13T09:52:42;5.45;;;1.45;;
69185;SDS011;56298;49.246;9.410;2023-07-13T09:57:51;5.40;;;1.47;;
69185;SDS011;56298;49.246;9.410;2023-07-13T10:00:28;6.93;;;1.30;;
69185;SDS011;56298;49.246;9.410;2023-07-13T10:03:37;6.10;;;1.55;;
69185;SDS011;56298;49.246;9.410;2023-07-13T10:05:45;6.10;;;1.40;;
69185;SDS011;56298;49.246;9.410;2023-07-13T10:08:19;4.80;;;1.50;;
69185;SDS011;56298;49.246;9.410;2023-07-13T10:10:49;5.65;;;1.50;;
69185;SDS011;56298;49.246;9.410;2023-07-13T10:13:27;5.97;;;1.43;;
69185;SDS011;56298;49.246;9.410;2023-07-13T10:15:56;5.07;;;1.33;;
69185;SDS011;56298;49.246;9.410;2023-07-13T10:18:23;5.30;;;1.40;;
69185;SDS011;56298;49.246;9.410;2023-07-13T10:20:53;7.03;;;1.55;;
69185;SDS011;56298;49.246;9.410;2023-07-13T10:23:23;6.93;;;1.40;;
69185;SDS011;56298;49.246;9.410;2023-07-13T10:25:55;5.90;;;1.40;;
69185;SDS011;56298;49.246;9.410;2023-07-13T10:31:00;6.45;;;1.52;;
69185;SDS011;56298;49.246;9.410;2023-07-13T10:33:27;5.87;;;1.60;;
69185;SDS011;56298;49.246;9.410;2023-07-13T10:35:54;5.47;;;1.33;;
69185;SDS011;56298;49.246;9.410;2023-07-13T10:38:30;4.83;;;1.30;;
69185;SDS011;56298;49.246;9.410;2023-07-13T10:41:03;6.15;;;1.42;;
69185;SDS011;56298;49.246;9.410;2023-07-13T10:43:33;6.07;;;1.23;;
69185;SDS011;56298;49.246;9.410;2023-07-13T10:46:06;5.68;;;1.40;;
69185;SDS011;56298;49.246;9.410;2023-07-13T10:48:35;5.57;;;1.40;;
69185;SDS011;56298;49.246;9.410;2023-07-13T10:51:02;7.13;;;1.60;;
69185;SDS011;56298;49.246;9.410;2023-07-13T10:53:32;5.47;;;1.40;;
69185;SDS011;56298;49.246;9.410;2023-07-13T10:56:10;5.75;;;1.52;;
69185;SDS011;56298;49.246;9.410;2023-07-13T10:58:47;4.68;;;1.30;;
69185;SDS011;56298;49.246;9.410;2023-07-13T11:01:27;5.17;;;1.60;;
69185;SDS011;56298;49.246;9.410;2023-07-13T11:04:04;4.40;;;1.30;;
69185;SDS011;56298;49.246;9.410;2023-07-13T11:06:42;6.00;;;1.40;;
69185;SDS011;56298;49.246;9.410;2023-07-13T11:11:44;6.95;;;1.50;;
69185;SDS011;56298;49.246;9.410;2023-07-13T11:14:26;6.30;;;1.45;;
69185;SDS011;56298;49.246;9.410;2023-07-13T11:20:46;6.22;;;1.20;;
69185;SDS011;56298;49.246;9.410;2023-07-13T11:25:38;5.67;;;1.43;;
69185;SDS011;56298;49.246;9.410;2023-07-13T11:33:14;6.05;;;1.40;;
69185;SDS011;56298;49.246;9.410;2023-07-13T11:41:27;4.55;;;1.30;;
69185;SDS011;56298;49.246;9.410;2023-07-13T11:46:52;5.90;;;1.50;;
69185;SDS011;56298;49.246;9.410;2023-07-13T11:49:20;6.13;;;1.30;;
69185;SDS011;56298;49.246;9.410;2023-07-13T11:51:47;6.40;;;1.27;;
69185;SDS011;56298;49.246;9.410;2023-07-13T11:59:42;4.72;;;1.45;;
69185;SDS011;56298;49.246;9.410;2023-07-13T12:02:12;4.83;;;1.20;;
69185;SDS011;56298;49.246;9.410;2023-07-13T12:04:42;6.43;;;1.35;;
69185;SDS011;56298;49.246;9.410;2023-07-13T12:07:15;4.43;;;1.50;;
69185;SDS011;56298;49.246;9.410;2023-07-13T12:09:42;6.43;;;1.42;;
69185;SDS011;56298;49.246;9.410;2023-07-13T12:12:15;5.32;;;1.67;;
69185;SDS011;56298;49.246;9.410;2023-07-13T12:14:43;6.38;;;1.50;;
69185;SDS011;56298;49.246;9.410;2023-07-13T12:17:10;6.00;;;1.57;;
69185;SDS011;56298;49.246;9.410;2023-07-13T12:19:43;4.90;;;1.50;;
69185;SDS011;56298;49.246;9.410;2023-07-13T12:22:08;5.17;;;1.67;;
69185;SDS011;56298;49.246;9.410;2023-07-13T12:24:37;5.88;;;1.45;;
69185;SDS011;56298;49.246;9.410;2023-07-13T12:27:05;5.85;;;1.73;;
69185;SDS011;56298;49.246;9.410;2023-07-13T12:29:33;6.30;;;1.80;;
69185;SDS011;56298;49.246;9.410;2023-07-13T12:31:58;6.18;;;1.60;;
69185;SDS011;56298;49.246;9.410;2023-07-13T12:34:24;6.63;;;1.50;;
69185;SDS011;56298;49.246;9.410;2023-07-13T12:36:52;4.70;;;1.48;;
69185;SDS011;56298;49.246;9.410;2023-07-13T12:44:46;5.70;;;1.40;;
69185;SDS011;56298;49.246;9.410;2023-07-13T12:47:12;5.53;;;1.53;;
69185;SDS011;56298;49.246;9.410;2023-07-13T12:49:42;5.03;;;1.40;;
69185;SDS011;56298;49.246;9.410;2023-07-13T12:52:32;5.85;;;1.45;;
69185;SDS011;56298;49.246;9.410;2023-07-13T12:55:10;5.75;;;1.45;;
69185;SDS011;56298;49.246;9.410;2023-07-13T12:57:42;4.90;;;1.33;;
69185;SDS011;56298;49.246;9.410;2023-07-13T13:03:11;4.65;;;1.55;;
69185;SDS011;56298;49.246;9.410;2023-07-13T13:05:46;5.65;;;1.58;;
69185;SDS011;56298;49.246;9.410;2023-07-13T13:08:11;5.55;;;1.88;;
69185;SDS011;56298;49.246;9.410;2023-07-13T13:10:37;5.25;;;1.50;;
69185;SDS011;56298;49.246;9.410;2023-07-13T13:13:03;8.77;;;1.60;;
69185;SDS011;56298;49.246;9.410;2023-07-13T13:15:28;5.63;;;1.67;;
69185;SDS011;56298;49.246;9.410;2023-07-13T13:17:54;6.18;;;1.50;;
69185;SDS011;56298;49.246;9.410;2023-07-13T13:20:21;4.25;;;1.30;;
69185;SDS011;56298;49.246;9.410;2023-07-13T13:22:47;4.95;;;1.58;;
69185;SDS011;56298;49.246;9.410;2023-07-13T13:25:13;5.53;;;1.43;;
69185;SDS011;56298;49.246;9.410;2023-07-13T13:27:43;7.18;;;1.73;;
69185;SDS011;56298;49.246;9.410;2023-07-13T13:30:13;5.32;;;1.55;;
69185;SDS011;56298;49.246;9.410;2023-07-13T13:32:40;5.53;;;1.60;;
69185;SDS011;56298;49.246;9.410;2023-07-13T13:35:18;5.28;;;1.77;;
69185;SDS011;56298;49.246;9.410;2023-07-13T13:37:45;4.40;;;1.80;;
69185;SDS011;56298;49.246;9.410;2023-07-13T13:40:22;5.47;;;1.55;;
69185;SDS011;56298;49.246;9.410;2023-07-13T13:42:48;5.07;;;1.60;;
69185;SDS011;56298;49.246;9.410;2023-07-13T13:45:13;6.87;;;1.60;;
69185;SDS011;56298;49.246;9.410;2023-07-13T13:47:39;6.60;;;1.50;;
69185;SDS011;56298;49.246;9.410;2023-07-13T13:50:15;6.10;;;1.65;;
69185;SDS011;56298;49.246;9.410;2023-07-13T13:52:43;6.38;;;1.60;;
69185;SDS011;56298;49.246;9.410;2023-07-13T13:55:13;6.07;;;1.40;;
69185;SDS011;56298;49.246;9.410;2023-07-13T13:57:38;6.13;;;1.70;;
69185;SDS011;56298;49.246;9.410;2023-07-13T14:00:04;5.67;;;1.40;;
69185;SDS011;56298;49.246;9.410;2023-07-13T14:02:30;5.90;;;1.30;;
69185;SDS011;56298;49.246;9.410;2023-07-13T14:04:58;5.47;;;1.30;;
69185;SDS011;56298;49.246;9.410;2023-07-13T14:07:25;4.50;;;1.53;;
69185;SDS011;56298;49.246;9.410;2023-07-13T14:09:55;6.78;;;1.50;;
69185;SDS011;56298;49.246;9.410;2023-07-13T14:12:22;6.23;;;1.30;;
69185;SDS011;56298;49.246;9.410;2023-07-13T14:14:49;5.72;;;1.50;;
69185;SDS011;56298;49.246;9.410;2023-07-13T14:17:19;5.43;;;1.40;;
69185;SDS011;56298;49.246;9.410;2023-07-13T14:19:50;5.68;;;1.60;;
69185;SDS011;56298;49.246;9.410;2023-07-13T14:22:16;5.43;;;1.52;;
69185;SDS011;56298;49.246;9.410;2023-07-13T14:24:43;6.10;;;1.30;;
69185;SDS011;56298;49.246;9.410;2023-07-13T14:27:09;5.77;;;1.70;;
69185;SDS011;56298;49.246;9.410;2023-07-13T14:29:36;4.13;;;1.30;;
69185;SDS011;56298;49.246;9.410;2023-07-13T14:32:01;6.03;;;1.53;;
69185;SDS011;56298;49.246;9.410;2023-07-13T14:34:26;4.60;;;1.40;;
69185;SDS011;56298;49.246;9.410;2023-07-13T14:36:52;5.73;;;1.40;;
69185;SDS011;56298;49.246;9.410;2023-07-13T14:39:18;5.43;;;1.50;;
69185;SDS011;56298;49.246;9.410;2023-07-13T14:41:51;5.75;;;1.52;;
69185;SDS011;56298;49.246;9.410;2023-07-13T14:44:28;5.45;;;1.40;;
69185;SDS011;56298;49.246;9.410;2023-07-13T14:46:56;5.13;;;1.48;;
69185;SDS011;56298;49.246;9.410;2023-07-13T14:49:30;5.40;;;1.45;;
69185;SDS011;56298;49.246;9.410;2023-07-13T14:51:58;5.00;;;1.42;;
69185;SDS011;56298;49.246;9.410;2023-07-13T14:54:25;4.43;;;1.30;;
69185;SDS011;56298;49.246;9.410;2023-07-13T14:56:50;6.87;;;1.30;;
69185;SDS011;56298;49.246;9.410;2023-07-13T14:59:16;5.30;;;1.40;;
69185;SDS011;56298;49.246;9.410;2023-07-13T15:01:44;6.40;;;1.30;;
69185;SDS011;56298;49.246;9.410;2023-07-13T15:04:10;6.07;;;1.20;;
69185;SDS011;56298;49.246;9.410;2023-07-13T15:06:52;4.50;;;1.60;;
69185;SDS011;56298;49.246;9.410;2023-07-13T15:09:27;4.82;;;1.35;;
69185;SDS011;56298;49.246;9.410;2023-07-13T15:11:54;5.67;;;1.37;;
69185;SDS011;56298;49.246;9.410;2023-07-13T15:14:20;4.47;;;1.25;;
69185;SDS011;56298;49.246;9.410;2023-07-13T15:16:46;6.30;;;1.50;;
69185;SDS011;56298;49.246;9.410;2023-07-13T15:19:13;7.40;;;1.40;;
69185;SDS011;56298;49.246;9.410;2023-07-13T15:21:40;5.43;;;1.33;;
69185;SDS011;56298;49.246;9.410;2023-07-13T15:24:08;6.93;;;1.40;;
69185;SDS011;56298;49.246;9.410;2023-07-13T15:26:34;5.05;;;1.40;;
69185;SDS011;56298;49.246;9.410;2023-07-13T15:29:00;4.90;;;1.50;;
69185;SDS011;56298;49.246;9.410;2023-07-13T15:31:26;7.13;;;1.50;;
69185;SDS011;56298;49.246;9.410;2023-07-13T15:33:56;4.82;;;1.30;;
69185;SDS011;56298;49.246;9.410;2023-07-13T15:36:23;7.30;;;1.27;;
69185;SDS011;56298;49.246;9.410;2023-07-13T15:38:51;4.60;;;1.20;;
69185;SDS011;56298;49.246;9.410;2023-07-13T15:41:21;6.25;;;1.20;;
69185;SDS011;56298;49.246;9.410;2023-07-13T15:43:55;5.85;;;1.40;;
69185;SDS011;56298;49.246;9.410;2023-07-13T15:46:23;4.00;;;1.23;;